createdAt,value
2022-11-18T00:01:37.208Z,24.98
2022-11-18T00:04:07.278Z,25.85
2022-11-18T00:06:39.833Z,26.25
2022-11-18T00:09:10.135Z,27.58
2022-11-18T00:11:58.977Z,27.20
2022-11-18T00:14:29.074Z,27.27
2022-11-18T00:17:07.488Z,27.63
2022-11-18T00:19:40.511Z,26.13
2022-11-18T00:22:14.839Z,26.83
2022-11-18T00:24:47.646Z,27.85
2022-11-18T00:27:14.900Z,27.88
2022-11-18T00:29:44.782Z,28.52
2022-11-18T00:32:14.778Z,27.67
2022-11-18T00:34:45.013Z,26.08
2022-11-18T00:39:42.783Z,27.02
2022-11-18T00:42:33.294Z,29.10
2022-11-18T00:45:02.005Z,25.77
2022-11-18T00:47:31.801Z,27.73
2022-11-18T00:50:01.689Z,27.48
2022-11-18T00:52:31.744Z,28.92
2022-11-18T00:55:04.819Z,28.27
2022-11-18T00:57:34.612Z,27.30
2022-11-18T01:00:05.628Z,28.48
2022-11-18T01:02:34.542Z,27.83
2022-11-18T01:05:05.551Z,27.58
2022-11-18T01:07:34.134Z,31.80
2022-11-18T01:10:04.658Z,28.55
2022-11-18T01:12:54.504Z,29.45
2022-11-18T01:15:24.651Z,27.73
2022-11-18T01:17:54.588Z,25.48
2022-11-18T01:20:24.225Z,31.63
2022-11-18T01:22:54.238Z,27.70
2022-11-18T01:25:24.154Z,28.45
2022-11-18T01:27:54.325Z,27.65
2022-11-18T01:30:24.579Z,29.38
2022-11-18T01:32:54.327Z,29.77
2022-11-18T01:35:24.221Z,25.88
2022-11-18T01:37:54.247Z,27.77
2022-11-18T01:40:27.617Z,28.52
2022-11-18T01:42:57.756Z,29.00
2022-11-18T01:45:45.078Z,28.55
2022-11-18T01:48:35.717Z,29.35
2022-11-18T01:51:16.982Z,28.92
2022-11-18T01:54:10.110Z,26.52
2022-11-18T01:56:54.811Z,26.98
2022-11-18T01:59:33.589Z,29.23
2022-11-18T02:02:14.020Z,25.77
2022-11-18T02:04:49.980Z,27.73
2022-11-18T02:07:21.253Z,27.52
2022-11-18T02:09:53.235Z,28.45
2022-11-18T02:12:22.193Z,26.15
2022-11-18T02:14:52.634Z,25.88
2022-11-18T02:18:04.261Z,27.15
2022-11-18T02:20:44.290Z,25.25
2022-11-18T02:24:20.794Z,26.50
2022-11-18T02:27:47.953Z,23.95
2022-11-18T02:30:19.819Z,22.67
2022-11-18T02:33:24.829Z,24.80
2022-11-18T02:36:09.840Z,24.80
2022-11-18T02:39:03.276Z,24.38
2022-11-18T02:41:39.734Z,25.83
2022-11-18T02:44:18.913Z,26.13
2022-11-18T02:47:01.415Z,25.75
2022-11-18T02:50:06.580Z,24.85
2022-11-18T02:52:44.940Z,26.67
2022-11-18T02:55:19.437Z,23.50
2022-11-18T02:57:50.804Z,25.50
2022-11-18T03:00:21.056Z,25.35
2022-11-18T03:02:51.389Z,27.40
2022-11-18T03:06:12.925Z,27.48
2022-11-18T03:09:01.283Z,27.35
2022-11-18T03:11:47.354Z,26.70
2022-11-18T03:14:57.046Z,27.30
2022-11-18T03:18:20.443Z,26.08
2022-11-18T03:21:05.934Z,26.05
2022-11-18T03:24:05.784Z,26.73
2022-11-18T03:26:48.009Z,25.15
2022-11-18T03:29:41.309Z,24.65
2022-11-18T03:32:24.567Z,25.17
2022-11-18T03:35:20.902Z,27.23
2022-11-18T03:38:07.540Z,24.40
2022-11-18T03:40:48.767Z,27.08
2022-11-18T03:43:29.708Z,25.42
2022-11-18T03:46:21.787Z,25.63
2022-11-18T03:48:58.643Z,25.30
2022-11-18T03:51:56.949Z,25.95
2022-11-18T03:54:39.216Z,26.67
2022-11-18T03:57:21.502Z,25.33
2022-11-18T04:00:07.771Z,26.05
2022-11-18T04:02:39.884Z,26.33
2022-11-18T04:05:16.930Z,25.80
2022-11-18T04:08:13.373Z,26.15
2022-11-18T04:11:38.073Z,25.50
2022-11-18T04:14:13.728Z,25.85
2022-11-18T04:16:45.676Z,27.17
2022-11-18T04:19:15.868Z,26.52
2022-11-18T04:21:49.355Z,27.42
2022-11-18T04:24:19.536Z,26.65
2022-11-18T04:26:49.570Z,24.73
2022-11-18T04:29:19.856Z,26.92
2022-11-18T04:31:50.365Z,27.23
2022-11-18T04:34:20.557Z,25.02
2022-11-18T04:36:50.744Z,26.52
2022-11-18T04:39:21.141Z,26.70
2022-11-18T04:41:57.174Z,27.63
2022-11-18T04:44:33.212Z,27.63
2022-11-18T04:47:07.083Z,25.98
2022-11-18T04:49:37.316Z,25.52
2022-11-18T04:52:07.761Z,27.98
2022-11-18T04:54:37.905Z,26.88
2022-11-18T04:57:07.957Z,26.23
2022-11-18T04:59:38.370Z,27.63
2022-11-18T05:02:08.674Z,28.20
2022-11-18T05:04:38.798Z,25.75
2022-11-18T05:07:09.016Z,27.35
2022-11-18T05:09:39.138Z,26.85
2022-11-18T05:12:37.771Z,27.77
2022-11-18T05:15:06.358Z,27.98
2022-11-18T05:17:36.428Z,28.75
2022-11-18T05:20:06.110Z,26.60
2022-11-18T05:22:33.884Z,26.63
2022-11-18T05:25:02.842Z,30.00
2022-11-18T05:27:30.708Z,28.58
2022-11-18T05:29:59.073Z,27.40
2022-11-18T05:32:27.371Z,30.58
2022-11-18T05:34:55.757Z,28.52
2022-11-18T05:37:24.221Z,28.48
2022-11-18T05:39:52.571Z,30.05
2022-11-18T05:42:39.784Z,29.88
2022-11-18T05:45:10.224Z,30.52
2022-11-18T05:47:59.910Z,28.92
2022-11-18T05:50:29.967Z,30.40
2022-11-18T05:52:58.447Z,30.65
2022-11-18T05:56:08.185Z,31.67
2022-11-18T05:58:38.301Z,32.33
2022-11-18T06:01:15.683Z,32.42
2022-11-18T06:03:46.212Z,31.63
2022-11-18T06:06:23.079Z,32.95
2022-11-18T06:09:07.379Z,32.35
2022-11-18T06:11:50.199Z,32.25
2022-11-18T06:14:48.606Z,31.52
2022-11-18T06:17:29.617Z,31.42
2022-11-18T06:20:00.740Z,29.23
2022-11-18T06:22:31.553Z,29.33
2022-11-18T06:25:03.777Z,29.42
2022-11-18T06:27:35.579Z,29.52
2022-11-18T06:30:05.346Z,28.30
2022-11-18T06:32:32.967Z,30.10
2022-11-18T06:35:01.437Z,26.50
2022-11-18T06:37:29.740Z,28.98
2022-11-18T06:39:58.139Z,26.27
2022-11-18T06:42:47.177Z,27.77
2022-11-18T06:45:17.624Z,26.52
2022-11-18T06:47:47.934Z,27.42
2022-11-18T06:50:18.287Z,28.80
2022-11-18T06:52:48.369Z,25.25
2022-11-18T06:55:18.991Z,25.48
2022-11-18T06:57:49.142Z,25.25
2022-11-18T07:00:19.710Z,23.95
2022-11-18T07:02:49.879Z,25.35
2022-11-18T07:05:20.003Z,23.35
2022-11-18T07:07:50.164Z,24.55
2022-11-18T07:10:20.680Z,26.75
2022-11-18T07:12:50.871Z,25.95
2022-11-18T07:15:21.034Z,23.83
2022-11-18T07:17:51.181Z,23.73
2022-11-18T07:20:21.364Z,27.15
2022-11-18T07:22:54.024Z,25.80
2022-11-18T07:25:24.167Z,26.40
2022-11-18T07:27:54.184Z,25.80
2022-11-18T07:30:24.210Z,25.02
2022-11-18T07:32:54.376Z,24.98
2022-11-18T07:35:24.450Z,25.80
2022-11-18T07:37:54.512Z,25.50
2022-11-18T07:40:24.560Z,25.25
2022-11-18T07:42:54.800Z,26.35
2022-11-18T07:45:25.651Z,25.17
2022-11-18T07:47:55.743Z,25.75
2022-11-18T07:50:25.852Z,26.77
2022-11-18T07:52:58.376Z,26.02
2022-11-18T07:55:32.134Z,26.92
2022-11-18T07:58:02.518Z,28.42
2022-11-18T08:00:32.581Z,24.15
2022-11-18T08:03:02.624Z,24.83
2022-11-18T08:05:32.803Z,25.17
2022-11-18T08:08:03.018Z,23.05
2022-11-18T08:10:33.162Z,24.98
2022-11-18T08:13:03.774Z,24.52
2022-11-18T08:15:33.836Z,23.00
2022-11-18T08:18:02.276Z,22.33
2022-11-18T08:20:30.707Z,23.17
2022-11-18T08:22:59.231Z,23.85
2022-11-18T08:25:27.871Z,23.60
2022-11-18T08:34:58.063Z,22.58
2022-11-18T08:37:28.180Z,20.75
2022-11-18T08:39:58.237Z,22.13
2022-11-18T08:42:33.935Z,23.02
2022-11-18T08:45:10.970Z,22.30
2022-11-18T08:47:41.721Z,23.02
2022-11-18T08:50:12.669Z,23.38
2022-11-18T08:52:40.975Z,23.55
2022-11-18T08:55:09.588Z,23.10
2022-11-18T08:57:37.697Z,22.35
2022-11-18T09:00:08.375Z,24.27
2022-11-18T09:02:38.408Z,24.02
2022-11-18T09:05:08.887Z,23.63
2022-11-18T09:07:39.025Z,24.10
2022-11-18T09:10:09.884Z,25.17
2022-11-18T09:12:40.008Z,23.48
2022-11-18T09:15:13.844Z,23.58
2022-11-18T09:17:44.780Z,22.92
2022-11-18T09:20:14.941Z,24.88
2022-11-18T09:22:45.060Z,21.75
2022-11-18T09:25:16.195Z,22.35
2022-11-18T09:27:47.818Z,22.73
2022-11-18T09:30:17.904Z,21.95
2022-11-18T09:32:48.316Z,22.00
2022-11-18T09:35:18.424Z,22.42
2022-11-18T09:37:48.600Z,22.50
2022-11-18T09:40:19.525Z,21.23
2022-11-18T09:43:17.559Z,21.27
2022-11-18T09:46:03.749Z,22.48
2022-11-18T09:48:56.675Z,21.85
2022-11-18T09:51:40.062Z,21.83
2022-11-18T09:54:21.828Z,22.45
2022-11-18T09:56:55.757Z,21.85
2022-11-18T09:59:31.416Z,22.92
2022-11-18T10:03:01.692Z,24.10
2022-11-18T10:06:07.317Z,20.85
2022-11-18T10:09:03.117Z,20.92
2022-11-18T10:12:21.764Z,20.10
2022-11-18T10:15:53.345Z,18.50
2022-11-18T10:19:14.816Z,20.25
2022-11-18T10:22:24.069Z,19.85
2022-11-18T10:25:01.484Z,20.27
2022-11-18T10:27:42.059Z,20.52
2022-11-18T10:30:26.633Z,19.05
2022-11-18T10:33:19.260Z,18.65
2022-11-18T10:35:50.654Z,18.13
2022-11-18T10:38:21.327Z,17.42
2022-11-18T10:41:01.608Z,18.10
2022-11-18T10:43:56.098Z,17.95
2022-11-18T10:46:34.893Z,18.25
2022-11-18T10:49:10.662Z,18.15
2022-11-18T10:52:16.197Z,17.73
2022-11-18T10:55:06.594Z,17.60
2022-11-18T10:57:43.692Z,18.20
2022-11-18T11:00:47.584Z,17.88
2022-11-18T11:03:35.862Z,16.88
2022-11-18T11:06:26.974Z,17.77
2022-11-18T11:09:26.417Z,17.90
2022-11-18T11:12:24.183Z,18.25
2022-11-18T11:17:45.786Z,15.32
2022-11-18T11:20:24.516Z,15.80
2022-11-18T11:22:56.300Z,16.25
2022-11-18T11:28:59.311Z,15.18
2022-11-18T11:31:44.768Z,15.05
2022-11-18T11:34:34.062Z,13.63
2022-11-18T11:37:47.356Z,15.25
2022-11-18T11:41:07.450Z,16.00
2022-11-18T11:44:19.527Z,14.50
2022-11-18T11:47:49.572Z,13.27
2022-11-18T11:50:19.683Z,13.82
2022-11-18T11:53:20.634Z,14.20
2022-11-18T11:56:18.311Z,14.05
2022-11-18T11:59:35.040Z,13.77
2022-11-18T12:02:59.669Z,14.02
2022-11-18T12:05:40.591Z,12.65
2022-11-18T12:08:30.828Z,13.13
2022-11-18T12:11:22.284Z,14.57
2022-11-18T12:14:39.697Z,12.73
2022-11-18T12:17:34.008Z,15.07
2022-11-18T12:20:59.706Z,13.90
2022-11-18T12:23:33.261Z,13.30
2022-11-18T12:26:35.253Z,13.75
2022-11-18T12:29:23.050Z,13.65
2022-11-18T12:31:58.780Z,14.40
2022-11-18T12:34:45.112Z,14.13
2022-11-18T12:37:24.153Z,13.63
2022-11-18T12:39:58.231Z,14.30
2022-11-18T12:43:04.523Z,13.52
2022-11-18T12:45:40.727Z,13.70
2022-11-18T12:48:34.761Z,13.63
2022-11-18T12:51:16.450Z,12.98
2022-11-18T12:53:51.203Z,12.30
2022-11-18T12:56:37.293Z,12.70
2022-11-18T12:59:13.787Z,13.02
2022-11-18T13:01:44.029Z,10.88
2022-11-18T13:04:20.484Z,11.30
2022-11-18T13:06:54.236Z,11.13
2022-11-18T13:09:31.160Z,10.73
2022-11-18T13:12:18.146Z,10.85
2022-11-18T13:15:07.211Z,10.82
2022-11-18T13:17:58.851Z,8.95
2022-11-18T13:20:36.001Z,8.90
2022-11-18T13:23:33.909Z,8.55
2022-11-18T13:26:19.811Z,9.80
2022-11-18T13:29:26.609Z,8.45
2022-11-18T13:32:22.868Z,9.02
2022-11-18T13:35:14.814Z,8.02
2022-11-18T13:38:02.443Z,8.73
2022-11-18T13:41:04.384Z,8.38
2022-11-18T13:43:36.675Z,8.43
2022-11-18T13:46:22.928Z,8.90
2022-11-18T13:48:59.774Z,8.20
2022-11-18T13:51:31.013Z,8.15
2022-11-18T13:54:01.343Z,8.18
2022-11-18T13:56:35.274Z,9.15
2022-11-18T13:59:21.113Z,7.65
2022-11-18T14:02:00.612Z,8.27
2022-11-18T14:04:32.957Z,8.55
2022-11-18T14:07:35.588Z,8.18
2022-11-18T14:10:11.580Z,8.02
2022-11-18T14:12:38.751Z,8.32
2022-11-18T14:15:42.079Z,7.75
2022-11-18T14:18:34.423Z,8.05
2022-11-18T14:21:06.044Z,7.57
2022-11-18T14:23:44.244Z,6.68
2022-11-18T14:26:33.074Z,6.93
2022-11-18T14:29:21.541Z,7.47
2022-11-18T14:32:15.411Z,7.00
2022-11-18T14:34:46.766Z,7.35
2022-11-18T14:37:17.454Z,7.55
2022-11-18T14:39:57.984Z,7.45
2022-11-18T14:42:28.131Z,7.97
2022-11-18T14:44:58.118Z,7.43
2022-11-18T14:47:30.319Z,7.57
2022-11-18T14:50:00.787Z,8.10
2022-11-18T14:52:31.058Z,7.30
2022-11-18T14:55:01.140Z,7.88
2022-11-18T14:57:31.218Z,7.70
2022-11-18T15:00:01.272Z,7.75
2022-11-18T15:02:31.400Z,7.75
2022-11-18T15:05:01.588Z,7.68
2022-11-18T15:07:31.700Z,7.32
2022-11-18T15:10:01.815Z,7.00
2022-11-18T15:12:31.823Z,7.38
2022-11-18T15:15:01.939Z,8.32
2022-11-18T15:17:32.011Z,7.32
2022-11-18T15:20:02.164Z,7.70
2022-11-18T15:22:32.284Z,7.13
2022-11-18T15:25:02.400Z,6.68
2022-11-18T15:27:32.527Z,7.38
2022-11-18T15:30:03.580Z,8.02
2022-11-18T15:32:32.493Z,7.45
2022-11-18T15:35:02.814Z,6.85
2022-11-18T15:37:32.862Z,7.40
2022-11-18T15:40:02.996Z,6.60
2022-11-18T15:42:36.487Z,6.18
2022-11-18T15:45:12.415Z,6.30
2022-11-18T15:47:42.493Z,6.95
2022-11-18T15:50:12.902Z,6.63
2022-11-18T15:52:42.899Z,7.00
2022-11-18T15:55:12.909Z,7.07
2022-11-18T15:57:42.913Z,7.75
2022-11-18T16:00:14.393Z,8.05
2022-11-18T16:02:45.252Z,7.47
2022-11-18T16:05:15.553Z,7.90
2022-11-18T16:07:45.667Z,7.13
2022-11-18T16:10:34.963Z,7.45
2022-11-18T16:13:06.858Z,7.13
2022-11-18T16:15:48.254Z,7.93
2022-11-18T16:18:19.667Z,8.40
2022-11-18T16:20:51.135Z,6.75
2022-11-18T16:23:21.109Z,7.00
2022-11-18T16:25:51.644Z,7.05
2022-11-18T16:28:21.056Z,6.55
2022-11-18T16:31:08.973Z,7.22
2022-11-18T16:33:38.995Z,7.80
2022-11-18T16:36:09.112Z,10.75
2022-11-18T16:38:39.170Z,8.73
2022-11-18T16:41:28.526Z,20.25
2022-11-18T16:44:09.921Z,20.92
2022-11-18T16:46:52.193Z,24.13
2022-11-18T16:49:27.081Z,17.92
2022-11-18T16:51:57.951Z,23.38
2022-11-18T16:54:32.335Z,18.15
2022-11-18T16:57:02.439Z,14.13
2022-11-18T16:59:32.501Z,12.93
2022-11-18T17:02:03.242Z,13.25
2022-11-18T17:04:36.318Z,16.73
2022-11-18T17:07:06.729Z,23.35
2022-11-18T17:09:37.234Z,20.98
2022-11-18T17:12:11.733Z,23.30
2022-11-18T17:14:40.988Z,23.30
2022-11-18T17:17:09.698Z,22.10
2022-11-18T17:19:39.876Z,19.95
2022-11-18T17:22:10.095Z,23.35
2022-11-18T17:24:40.212Z,20.73
2022-11-18T17:27:10.411Z,18.15
2022-11-18T17:29:40.690Z,16.52
2022-11-18T17:32:11.049Z,16.13
2022-11-18T17:34:41.135Z,15.15
2022-11-18T17:37:11.397Z,16.13
2022-11-18T17:39:41.591Z,15.32
2022-11-18T17:42:15.579Z,18.15
2022-11-18T17:44:44.634Z,16.95
2022-11-18T17:47:12.266Z,16.92
2022-11-18T17:49:41.137Z,14.93
2022-11-18T17:52:09.719Z,15.38
2022-11-18T17:54:37.603Z,16.10
2022-11-18T17:57:06.097Z,16.42
2022-11-18T17:59:34.577Z,16.77
2022-11-18T18:02:03.109Z,19.05
2022-11-18T18:04:31.476Z,19.15
2022-11-18T18:06:59.963Z,17.05
2022-11-18T18:09:31.034Z,16.60
2022-11-18T18:12:21.439Z,16.52
2022-11-18T18:14:51.315Z,14.70
2022-11-18T18:17:21.564Z,15.43
2022-11-18T18:19:51.504Z,15.80
2022-11-18T18:22:21.144Z,16.55
2022-11-18T18:24:50.919Z,18.55
2022-11-18T18:27:20.785Z,17.05
2022-11-18T18:29:50.551Z,15.68
2022-11-18T18:32:20.579Z,16.15
2022-11-18T18:34:50.369Z,16.02
2022-11-18T18:37:20.352Z,18.10
2022-11-18T18:39:50.061Z,16.70
2022-11-18T18:42:19.997Z,16.60
2022-11-18T18:45:08.327Z,17.25
2022-11-18T18:47:37.950Z,17.25
2022-11-18T18:50:07.871Z,16.90
2022-11-18T18:52:37.865Z,16.35
2022-11-18T18:55:08.077Z,17.27
2022-11-18T18:57:38.153Z,16.10
2022-11-18T19:00:09.829Z,16.35
2022-11-18T19:02:39.128Z,16.38
2022-11-18T19:05:09.209Z,17.02
2022-11-18T19:07:43.020Z,17.65
2022-11-18T19:10:11.965Z,19.27
2022-11-18T19:12:46.797Z,17.17
2022-11-18T19:15:16.722Z,18.65
2022-11-18T19:17:47.586Z,17.77
2022-11-18T19:20:36.903Z,19.73
2022-11-18T19:23:12.257Z,19.85
2022-11-18T19:25:40.123Z,19.17
2022-11-18T19:28:08.319Z,21.15
2022-11-18T19:30:38.498Z,20.15
2022-11-18T19:33:07.612Z,19.83
2022-11-18T19:35:37.805Z,20.00
2022-11-18T19:38:07.673Z,19.85
2022-11-18T19:40:37.388Z,20.00
2022-11-18T19:43:07.152Z,20.67
2022-11-18T19:45:36.862Z,21.52
2022-11-18T19:48:06.572Z,21.42
2022-11-18T19:50:36.316Z,22.67
2022-11-18T19:53:26.037Z,21.45
2022-11-18T19:56:04.512Z,19.25
2022-11-18T19:58:37.111Z,20.83
2022-11-18T20:01:29.281Z,20.95
2022-11-18T20:04:03.179Z,19.60
2022-11-18T20:06:36.828Z,21.92
2022-11-18T20:09:10.121Z,21.10
2022-11-18T20:11:40.891Z,22.30
2022-11-18T20:14:12.952Z,22.05
2022-11-18T20:16:43.069Z,23.77
2022-11-18T20:19:13.821Z,22.30
2022-11-18T20:21:44.492Z,21.85
2022-11-18T20:24:18.906Z,21.08
2022-11-18T20:26:48.970Z,22.55
2022-11-18T20:29:19.237Z,20.23
2022-11-18T20:31:49.404Z,21.67
2022-11-18T20:34:19.460Z,22.60
2022-11-18T20:36:51.903Z,23.13
2022-11-18T20:39:22.232Z,23.52
2022-11-18T20:42:12.611Z,23.85
2022-11-18T20:44:41.050Z,22.67
2022-11-18T20:47:10.667Z,24.70
2022-11-18T20:49:37.792Z,24.15
2022-11-18T20:52:07.669Z,23.65
2022-11-18T20:54:37.402Z,24.35
2022-11-18T20:57:07.183Z,25.77
2022-11-18T20:59:36.960Z,26.08
2022-11-18T21:02:06.943Z,25.75
2022-11-18T21:04:36.740Z,27.75
2022-11-18T21:07:06.632Z,28.38
2022-11-18T21:09:36.284Z,28.65
2022-11-18T21:12:11.142Z,31.02
2022-11-18T21:14:39.719Z,27.45
2022-11-18T21:17:09.459Z,28.77
2022-11-18T21:19:39.300Z,27.83
2022-11-18T21:22:09.153Z,27.63
2022-11-18T21:24:38.831Z,27.13
2022-11-18T21:27:08.818Z,28.45
2022-11-18T21:29:39.517Z,28.40
2022-11-18T21:32:08.434Z,28.35
2022-11-18T21:34:38.206Z,28.23
2022-11-18T21:37:07.960Z,28.58
2022-11-18T21:39:37.677Z,27.90
2022-11-18T21:42:11.722Z,27.02
2022-11-18T21:44:42.134Z,25.70
2022-11-18T21:47:10.527Z,27.23
2022-11-18T21:49:38.941Z,27.33
2022-11-18T21:52:07.682Z,28.05
2022-11-18T21:54:39.115Z,27.25
2022-11-18T21:57:09.139Z,27.85
2022-11-18T21:59:37.589Z,29.70
2022-11-18T22:02:06.506Z,28.67
2022-11-18T22:04:52.563Z,31.83
2022-11-18T22:07:25.829Z,35.10
2022-11-18T22:09:55.563Z,37.22
2022-11-18T22:12:25.549Z,36.75
2022-11-18T22:14:55.380Z,36.08
2022-11-18T22:17:25.167Z,38.97
2022-11-18T22:19:55.036Z,35.90
2022-11-18T22:22:24.922Z,35.45
2022-11-18T22:24:54.680Z,34.78
2022-11-18T22:27:24.858Z,38.25
2022-11-18T22:29:54.759Z,36.72
2022-11-18T22:32:24.958Z,35.85
2022-11-18T22:34:54.515Z,34.28
2022-11-18T22:37:24.212Z,34.25
2022-11-18T22:39:53.938Z,34.90
2022-11-18T22:42:42.680Z,32.53
2022-11-18T22:45:12.178Z,30.67
2022-11-18T22:47:43.353Z,29.02
2022-11-18T22:50:13.477Z,29.48
2022-11-18T22:52:43.944Z,29.40
2022-11-18T22:55:14.111Z,30.63
2022-11-18T22:57:45.272Z,29.73
2022-11-18T23:00:16.992Z,26.30
2022-11-18T23:02:48.808Z,25.80
2022-11-18T23:05:18.817Z,24.77
2022-11-18T23:07:48.884Z,25.83
2022-11-18T23:10:18.972Z,25.20
2022-11-18T23:13:07.495Z,24.73
2022-11-18T23:15:37.556Z,24.98
2022-11-18T23:18:11.519Z,23.00
2022-11-18T23:20:42.108Z,23.13
2022-11-18T23:23:12.200Z,23.73
2022-11-18T23:25:45.070Z,22.70
2022-11-18T23:28:15.149Z,22.80
2022-11-18T23:30:45.291Z,22.00
2022-11-18T23:33:15.463Z,23.02
2022-11-18T23:35:53.058Z,20.85
2022-11-18T23:38:23.188Z,20.63
2022-11-18T23:41:06.839Z,20.88
2022-11-18T23:43:36.547Z,19.33
2022-11-18T23:46:09.850Z,17.92
2022-11-18T23:48:43.596Z,19.08
2022-11-18T23:51:21.286Z,17.70
2022-11-18T23:53:57.489Z,19.80
2022-11-18T23:56:37.488Z,17.88
2022-11-18T23:59:08.391Z,19.17
